Time;durP1;ratioP1;P1;durP2;ratioP2;P2;SDS_P1;SDS_P2;PMS_P1;PMS_P2;Temp;Humidity;BMP_temperature;BMP_pressure;BME280_temperature;BME280_humidity;BME280_pressure;Samples;Min_cycle;Max_cycle;Signal;HPM_P1;HPM_P2
2024/02/05 00:01:28;;;;;;;71.55;48.55;;;19.40;77.20;;;;;;5031787;28;20047;-67
2024/02/05 00:03:53;;;;;;;65.35;45.88;;;19.40;77.20;;;;;;5032015;28;20026;-67
2024/02/05 00:06:19;;;;;;;67.68;47.75;;;19.40;77.20;;;;;;5032278;28;20501;-67
2024/02/05 00:08:45;;;;;;;64.65;46.10;;;19.40;77.20;;;;;;5031953;28;20030;-66
2024/02/05 00:11:10;;;;;;;63.80;44.35;;;19.40;77.20;;;;;;5031466;28;20034;-66
2024/02/05 00:13:36;;;;;;;64.55;45.97;;;19.40;77.20;;;;;;4994537;28;1088358;-66
2024/02/05 00:16:03;;;;;;;61.22;42.72;;;19.40;77.10;;;;;;5033267;28;20059;-66
2024/02/05 00:18:29;;;;;;;64.18;41.35;;;19.40;77.20;;;;;;5033586;28;20033;-65
2024/02/05 00:20:54;;;;;;;62.30;43.72;;;19.40;77.40;;;;;;5032379;28;20033;-66
2024/02/05 00:23:21;;;;;;;64.57;42.58;;;19.40;77.40;;;;;;5032911;28;20021;-66
2024/02/05 00:25:46;;;;;;;63.17;43.28;;;19.40;77.30;;;;;;5033231;28;20029;-67
2024/02/05 00:28:12;;;;;;;57.78;40.60;;;19.40;77.30;;;;;;5032946;28;20500;-67
2024/02/05 00:30:38;;;;;;;58.75;41.75;;;19.40;77.30;;;;;;5032085;28;20029;-66
2024/02/05 00:33:05;;;;;;;60.40;41.45;;;19.40;77.30;;;;;;5032766;28;20033;-69
2024/02/05 00:35:31;;;;;;;62.22;41.05;;;19.40;77.20;;;;;;5033188;28;20033;-67
2024/02/05 00:37:58;;;;;;;58.67;39.83;;;19.40;77.20;;;;;;5032734;28;20029;-66
2024/02/05 00:40:23;;;;;;;54.80;38.38;;;19.40;77.20;;;;;;5032241;28;20049;-67
2024/02/05 00:42:49;;;;;;;57.50;39.13;;;19.40;77.30;;;;;;5032873;28;20782;-66
2024/02/05 00:45:15;;;;;;;54.70;39.05;;;19.40;77.20;;;;;;5032854;28;20484;-67
2024/02/05 00:47:41;;;;;;;53.83;37.42;;;19.40;77.30;;;;;;5031590;28;20017;-67
2024/02/05 00:50:07;;;;;;;52.25;36.92;;;19.40;77.30;;;;;;5032116;28;20560;-67
2024/02/05 00:52:33;;;;;;;52.05;36.13;;;19.40;77.60;;;;;;5032359;28;20037;-65
2024/02/05 00:54:59;;;;;;;49.13;35.50;;;19.40;77.50;;;;;;5033403;28;20456;-67
2024/02/05 00:57:26;;;;;;;50.30;36.35;;;19.40;77.40;;;;;;5033021;28;20109;-68
2024/02/05 00:59:53;;;;;;;52.60;34.55;;;19.40;77.50;;;;;;5033471;28;20033;-68
2024/02/05 01:02:18;;;;;;;50.05;34.35;;;19.40;77.60;;;;;;5035021;28;20048;-67
2024/02/05 01:04:44;;;;;;;49.35;34.58;;;19.40;77.60;;;;;;5032222;28;20021;-65
2024/02/05 01:07:10;;;;;;;43.25;32.53;;;19.40;77.50;;;;;;5031792;28;20024;-66
2024/02/05 01:09:35;;;;;;;47.53;34.65;;;19.40;77.50;;;;;;5032439;28;20116;-66
2024/02/05 01:12:03;;;;;;;48.35;33.83;;;19.40;77.60;;;;;;5031608;28;20026;-65
2024/02/05 01:14:28;;;;;;;47.00;33.13;;;19.40;77.50;;;;;;5032067;28;20561;-65
2024/02/05 01:16:55;;;;;;;46.65;32.10;;;19.40;77.60;;;;;;5032018;28;20034;-65
2024/02/05 01:19:21;;;;;;;42.97;31.67;;;19.40;77.60;;;;;;5032167;28;20167;-65
2024/02/05 01:21:47;;;;;;;45.17;31.92;;;19.40;77.60;;;;;;5031252;28;20088;-66
2024/02/05 01:24:12;;;;;;;44.05;31.00;;;19.40;77.60;;;;;;5031969;28;20714;-66
2024/02/05 01:26:38;;;;;;;42.90;30.92;;;19.40;77.60;;;;;;5031824;28;20025;-64
2024/02/05 01:29:06;;;;;;;40.65;29.77;;;19.40;77.60;;;;;;5032110;28;20485;-65
2024/02/05 01:31:32;;;;;;;43.47;29.88;;;19.40;77.60;;;;;;5031067;28;20026;-65
2024/02/05 01:33:59;;;;;;;42.65;30.38;;;19.40;77.60;;;;;;5031707;28;20037;-65
2024/02/05 01:36:25;;;;;;;38.60;27.80;;;19.40;77.60;;;;;;5032670;28;20037;-65
2024/02/05 01:38:51;;;;;;;43.00;29.80;;;19.40;77.60;;;;;;5032569;28;20021;-64
2024/02/05 01:41:16;;;;;;;39.47;28.15;;;19.40;77.50;;;;;;5031777;28;20040;-65
2024/02/05 01:43:42;;;;;;;39.15;27.63;;;19.40;77.50;;;;;;5032399;28;20022;-65
2024/02/05 01:46:15;;;;;;;37.10;26.88;;;19.40;77.50;;;;;;5031508;28;20021;-66
2024/02/05 01:48:45;;;;;;;37.95;27.40;;;19.40;77.60;;;;;;5031407;28;20025;-66
2024/02/05 01:51:13;;;;;;;39.67;28.40;;;19.40;77.50;;;;;;5030688;28;20034;-66
2024/02/05 01:53:40;;;;;;;36.88;25.92;;;19.40;77.50;;;;;;5031602;28;20032;-65
2024/02/05 01:56:06;;;;;;;35.75;25.88;;;19.40;77.50;;;;;;5031177;28;20025;-65
2024/02/05 01:58:32;;;;;;;35.83;26.38;;;19.40;77.50;;;;;;5031149;28;20032;-65
2024/02/05 02:00:58;;;;;;;35.88;25.45;;;19.40;77.60;;;;;;5030579;28;20026;-66
2024/02/05 02:03:26;;;;;;;35.10;25.42;;;19.40;77.40;;;;;;5031223;28;20050;-65
2024/02/05 02:05:51;;;;;;;39.03;26.65;;;19.40;77.50;;;;;;5031331;28;20022;-64
2024/02/05 02:08:19;;;;;;;33.35;24.13;;;19.40;77.50;;;;;;5031054;28;20013;-64
2024/02/05 02:10:46;;;;;;;35.13;25.17;;;19.40;77.50;;;;;;5030467;28;20033;-64
2024/02/05 02:13:12;;;;;;;34.58;24.25;;;19.40;77.40;;;;;;5030888;28;20100;-65
2024/02/05 02:15:38;;;;;;;35.78;24.67;;;19.40;77.40;;;;;;5031071;28;20087;-65
2024/02/05 02:18:09;;;;;;;33.03;23.55;;;19.40;77.50;;;;;;5030885;28;20037;-65
2024/02/05 02:20:45;;;;;;;31.55;23.02;;;19.40;77.40;;;;;;5030127;28;20029;-65
2024/02/05 02:23:19;;;;;;;35.75;24.35;;;19.40;77.40;;;;;;5031048;28;20370;-66
2024/02/05 02:25:50;;;;;;;32.55;22.63;;;19.40;77.40;;;;;;5030942;28;20053;-66
2024/02/05 02:28:16;;;;;;;;;;;19.40;77.40;;;;;;5031406;28;20014;-67
2024/02/05 02:30:43;;;;;;;32.05;22.65;;;19.40;77.40;;;;;;5030140;28;20005;-66
2024/02/05 02:33:24;;;;;;;32.20;22.45;;;19.40;77.30;;;;;;5030859;28;20056;-68
2024/02/05 02:36:02;;;;;;;32.42;21.58;;;19.40;77.40;;;;;;5030738;28;20030;-67
2024/02/05 02:38:35;;;;;;;30.67;21.98;;;19.40;77.30;;;;;;5024026;28;20377;-67
2024/02/05 02:41:05;;;;;;;30.98;21.98;;;19.40;77.40;;;;;;5030006;28;20026;-67
2024/02/05 02:43:40;;;;;;;31.20;21.48;;;19.40;77.40;;;;;;5030808;28;20018;-67
2024/02/05 02:46:07;;;;;;;30.25;21.00;;;19.40;77.50;;;;;;5030622;28;20014;-66
2024/02/05 02:48:33;;;;;;;34.17;21.23;;;19.40;77.50;;;;;;5030468;28;20481;-67
2024/02/05 02:50:58;;;;;;;26.25;19.52;;;19.40;77.60;;;;;;5029969;28;20033;-68
2024/02/05 02:53:24;;;;;;;29.40;19.63;;;19.40;77.70;;;;;;5029609;28;20022;-67
2024/02/05 02:55:50;;;;;;;36.88;19.75;;;19.40;77.60;;;;;;5030412;28;20393;-67
2024/02/05 02:58:16;;;;;;;29.20;20.45;;;19.40;77.60;;;;;;5030448;28;20052;-67
2024/02/05 03:00:41;;;;;;;32.15;20.70;;;19.40;77.50;;;;;;5029617;28;20056;-66
2024/02/05 03:03:07;;;;;;;30.23;19.63;;;19.40;77.50;;;;;;5030300;28;20029;-66
2024/02/05 03:05:33;;;;;;;31.00;20.05;;;19.40;77.60;;;;;;5030505;28;20076;-64
2024/02/05 03:07:58;;;;;;;26.05;18.30;;;19.50;77.50;;;;;;5030087;28;20036;-65
2024/02/05 03:10:24;;;;;;;36.50;18.48;;;19.40;77.40;;;;;;5029981;28;20393;-66
2024/02/05 03:12:49;;;;;;;28.95;17.67;;;19.40;77.40;;;;;;5030116;28;20025;-65
2024/02/05 03:15:15;;;;;;;37.67;18.02;;;19.50;77.70;;;;;;5030106;28;20033;-65
2024/02/05 03:17:41;;;;;;;33.92;17.65;;;19.40;77.50;;;;;;5030510;28;20026;-67
2024/02/05 03:20:07;;;;;;;30.08;17.60;;;19.40;77.60;;;;;;5029609;28;20017;-65
2024/02/05 03:22:32;;;;;;;23.65;16.65;;;19.50;77.60;;;;;;5029830;28;20024;-66
2024/02/05 03:24:58;;;;;;;24.35;15.32;;;19.40;77.60;;;;;;5030129;28;20065;-67
2024/02/05 03:27:24;;;;;;;25.83;15.75;;;19.50;77.70;;;;;;5030538;28;20029;-65
2024/02/05 03:29:49;;;;;;;25.50;15.43;;;19.50;77.70;;;;;;5030598;28;20036;-65
2024/02/05 03:32:15;;;;;;;21.38;14.85;;;19.50;77.80;;;;;;5030287;28;20100;-66
2024/02/05 03:34:41;;;;;;;21.02;13.50;;;19.50;77.70;;;;;;5030393;28;20029;-65
2024/02/05 03:37:06;;;;;;;22.83;14.52;;;19.50;77.80;;;;;;5030006;28;20035;-67
2024/02/05 03:39:32;;;;;;;22.27;13.30;;;19.50;77.90;;;;;;5029912;28;20474;-66
2024/02/05 03:41:57;;;;;;;22.20;13.57;;;19.50;77.90;;;;;;5028224;28;20021;-66
2024/02/05 03:44:24;;;;;;;19.08;12.60;;;19.50;78.10;;;;;;5030122;28;20030;-67
2024/02/05 03:46:49;;;;;;;25.20;12.65;;;19.50;78.10;;;;;;5029907;28;20029;-67
2024/02/05 03:49:15;;;;;;;19.98;11.52;;;19.50;78.10;;;;;;5030037;28;20024;-66
2024/02/05 03:51:40;;;;;;;20.35;11.88;;;19.50;78.20;;;;;;5029285;28;20029;-65
2024/02/05 03:54:07;;;;;;;17.20;11.55;;;19.50;78.10;;;;;;5029741;28;20091;-65
2024/02/05 03:56:33;;;;;;;18.35;11.60;;;19.50;78.30;;;;;;5029803;28;20021;-67
2024/02/05 03:58:58;;;;;;;15.70;10.52;;;19.50;78.20;;;;;;5029988;28;20115;-65
2024/02/05 04:01:24;;;;;;;16.02;11.23;;;19.50;78.20;;;;;;5029367;28;20062;-65
2024/02/05 04:03:50;;;;;;;15.40;10.18;;;19.50;78.30;;;;;;5031076;28;20013;-66
2024/02/05 04:06:16;;;;;;;13.63;9.50;;;19.50;78.30;;;;;;5033213;28;20070;-65
2024/02/05 04:08:41;;;;;;;14.80;9.70;;;19.50;78.40;;;;;;5033259;28;20113;-65
2024/02/05 04:11:07;;;;;;;15.40;10.02;;;19.50;78.40;;;;;;5032427;28;20099;-64
2024/02/05 04:13:32;;;;;;;15.05;9.60;;;19.50;78.30;;;;;;5032993;28;20581;-64
2024/02/05 04:15:58;;;;;;;16.08;9.00;;;19.50;78.30;;;;;;5074125;23;20040;-62
2024/02/05 04:18:24;;;;;;;17.77;8.98;;;19.50;78.40;;;;;;5063260;28;20111;-62
2024/02/05 04:20:52;;;;;;;12.88;8.45;;;19.50;78.40;;;;;;5070276;28;20115;-62
2024/02/05 04:23:19;;;;;;;14.10;8.65;;;19.50;78.50;;;;;;5062861;28;20021;-62
2024/02/05 04:25:45;;;;;;;22.88;9.30;;;19.50;78.40;;;;;;5063719;28;20029;-61
2024/02/05 04:28:10;;;;;;;13.23;7.95;;;19.50;78.60;;;;;;5061829;28;20021;-63
2024/02/05 04:30:37;;;;;;;12.13;8.70;;;19.50;78.50;;;;;;5061963;28;20056;-61
2024/02/05 04:33:04;;;;;;;17.02;8.00;;;19.50;78.40;;;;;;5052781;28;20029;-61
2024/02/05 04:35:29;;;;;;;10.63;7.28;;;19.50;78.50;;;;;;5061301;28;20033;-62
2024/02/05 04:37:55;;;;;;;13.90;7.50;;;19.50;78.60;;;;;;5059515;28;20025;-60
2024/02/05 04:40:20;;;;;;;10.35;6.88;;;19.50;78.50;;;;;;5057495;28;20120;-63
2024/02/05 04:42:46;;;;;;;12.38;7.00;;;19.50;78.80;;;;;;5057916;28;20048;-62
2024/02/05 04:45:12;;;;;;;9.55;6.43;;;19.50;78.80;;;;;;5060578;28;20068;-63
2024/02/05 04:47:38;;;;;;;10.40;6.70;;;19.50;78.70;;;;;;5061581;28;20024;-63
2024/02/05 04:50:04;;;;;;;9.32;6.03;;;19.50;78.80;;;;;;5049538;28;20622;-63
2024/02/05 04:52:30;;;;;;;13.60;6.30;;;19.50;78.80;;;;;;5062427;28;20043;-63
2024/02/05 04:54:55;;;;;;;12.70;6.40;;;19.50;78.90;;;;;;5061936;28;20029;-63
2024/02/05 04:57:21;;;;;;;10.95;6.15;;;19.50;79.00;;;;;;5059044;28;20029;-63
2024/02/05 04:59:48;;;;;;;11.77;6.25;;;19.50;78.90;;;;;;5058832;28;20037;-64
2024/02/05 05:02:13;;;;;;;12.30;5.82;;;19.50;79.00;;;;;;5061343;28;20051;-64
2024/02/05 05:04:42;;;;;;;17.40;5.78;;;19.50;79.30;;;;;;5062099;28;20424;-64
2024/02/05 05:07:07;;;;;;;12.50;5.82;;;19.50;79.30;;;;;;5057831;28;20078;-62
2024/02/05 05:09:33;;;;;;;10.10;5.50;;;19.50;79.30;;;;;;5060899;28;20028;-63
2024/02/05 05:11:58;;;;;;;10.90;5.22;;;19.50;79.00;;;;;;5057926;28;20028;-64
2024/02/05 05:14:24;;;;;;;11.40;5.30;;;19.50;79.10;;;;;;5057023;28;20028;-64
2024/02/05 05:16:53;;;;;;;11.32;5.68;;;19.50;79.20;;;;;;5056411;28;20047;-64
2024/02/05 05:19:18;;;;;;;8.73;5.43;;;19.50;79.10;;;;;;5058780;28;20029;-64
2024/02/05 05:21:44;;;;;;;8.60;4.35;;;19.50;79.10;;;;;;5058253;28;20025;-63
2024/02/05 05:24:11;;;;;;;9.00;4.47;;;19.50;79.00;;;;;;5063731;28;20404;-61
2024/02/05 05:26:37;;;;;;;9.63;5.03;;;19.50;79.20;;;;;;5056906;28;20083;-62
2024/02/05 05:29:04;;;;;;;8.23;4.22;;;19.50;79.20;;;;;;5058451;28;20499;-61
2024/02/05 05:31:29;;;;;;;5.57;4.15;;;19.60;79.30;;;;;;5059745;28;20029;-63
2024/02/05 05:33:55;;;;;;;5.63;4.03;;;19.50;79.30;;;;;;5058712;28;20383;-63
2024/02/05 05:36:21;;;;;;;9.27;3.92;;;19.50;79.30;;;;;;5057225;28;20499;-63
2024/02/05 05:38:46;;;;;;;6.25;3.70;;;19.50;79.20;;;;;;5056647;28;20033;-62
2024/02/05 05:41:12;;;;;;;6.63;4.15;;;19.50;79.20;;;;;;5058783;28;20426;-64
2024/02/05 05:43:37;;;;;;;7.32;3.75;;;19.50;79.20;;;;;;5060361;28;20031;-64
2024/02/05 05:46:03;;;;;;;6.38;3.88;;;19.50;79.20;;;;;;5057045;28;20512;-64
2024/02/05 05:48:29;;;;;;;8.00;3.28;;;19.50;79.20;;;;;;5056676;28;20017;-64
2024/02/05 05:50:54;;;;;;;5.55;3.00;;;19.50;79.20;;;;;;5055655;28;20101;-63
2024/02/05 05:53:20;;;;;;;7.63;3.50;;;19.50;79.20;;;;;;5060042;28;20028;-64
2024/02/05 05:55:48;;;;;;;5.72;3.45;;;19.50;79.20;;;;;;5059540;28;20101;-64
2024/02/05 05:58:14;;;;;;;5.95;2.97;;;19.50;79.30;;;;;;5056432;28;20028;-64
2024/02/05 06:00:39;;;;;;;5.70;3.20;;;19.50;79.20;;;;;;5055287;28;20028;-64
2024/02/05 06:03:06;;;;;;;5.95;3.17;;;19.50;79.20;;;;;;5057310;28;20025;-64
2024/02/05 06:05:31;;;;;;;6.22;3.40;;;19.50;79.50;;;;;;5060118;28;20029;-65
2024/02/05 06:07:57;;;;;;;5.38;3.65;;;19.50;79.30;;;;;;5059838;28;20035;-64
2024/02/05 06:10:22;;;;;;;7.50;4.45;;;19.50;79.10;;;;;;5055652;28;20033;-65
2024/02/05 06:12:48;;;;;;;6.75;4.45;;;19.50;78.70;;;;;;5055801;28;20032;-64
2024/02/05 06:15:14;;;;;;;7.45;4.28;;;19.50;78.60;;;;;;5058632;28;20048;-63
2024/02/05 06:17:40;;;;;;;14.38;4.90;;;19.50;78.40;;;;;;5061497;28;20025;-63
2024/02/05 06:20:06;;;;;;;7.63;4.85;;;19.50;78.40;;;;;;5058826;28;20023;-63
2024/02/05 06:22:36;;;;;;;18.20;7.60;;;19.50;78.20;;;;;;5061198;28;20039;-64
2024/02/05 06:25:02;;;;;;;28.10;6.78;;;19.50;78.80;;;;;;5058046;28;20471;-65
2024/02/05 06:27:28;;;;;;;23.23;7.38;;;19.50;79.10;;;;;;5059555;28;20029;-65
2024/02/05 06:29:53;;;;;;;21.83;6.53;;;19.50;79.10;;;;;;5057612;28;20036;-65
2024/02/05 06:32:19;;;;;;;20.40;7.07;;;19.50;79.00;;;;;;5047251;28;20727;-65
2024/02/05 06:34:44;;;;;;;18.13;7.07;;;19.50;78.90;;;;;;5055756;28;20021;-65
2024/02/05 06:37:10;;;;;;;14.73;5.70;;;19.50;78.80;;;;;;5058437;28;20531;-65
2024/02/05 06:39:36;;;;;;;17.23;6.50;;;19.50;78.80;;;;;;5059222;28;20031;-65
2024/02/05 06:42:02;;;;;;;35.30;7.68;;;19.50;78.80;;;;;;5055756;28;20025;-65
2024/02/05 06:44:27;;;;;;;24.58;7.80;;;19.50;78.90;;;;;;5055904;28;20025;-65
2024/02/05 06:46:53;;;;;;;17.15;6.93;;;19.50;78.60;;;;;;5055611;28;20055;-65
2024/02/05 06:49:20;;;;;;;21.73;7.30;;;19.50;78.50;;;;;;5059092;28;20103;-64
2024/02/05 06:51:46;;;;;;;23.85;7.90;;;19.50;78.40;;;;;;5051598;28;20056;-64
2024/02/05 06:54:12;;;;;;;27.02;6.75;;;19.50;78.40;;;;;;5055426;28;20098;-65
2024/02/05 06:56:37;;;;;;;26.45;6.65;;;19.50;78.20;;;;;;5055174;28;20029;-64
2024/02/05 06:59:03;;;;;;;17.77;6.85;;;19.50;78.20;;;;;;5057109;28;20039;-65
2024/02/05 07:01:29;;;;;;;21.95;6.90;;;19.50;77.90;;;;;;5058477;28;20476;-65
2024/02/05 07:03:54;;;;;;;15.70;7.03;;;19.50;77.90;;;;;;5057265;28;20052;-64
2024/02/05 07:06:20;;;;;;;19.38;6.47;;;19.50;78.00;;;;;;5055560;28;20100;-64
2024/02/05 07:08:46;;;;;;;17.65;6.40;;;19.50;78.00;;;;;;5043265;28;20374;-64
2024/02/05 07:11:12;;;;;;;3.53;0.90;;;19.50;78.00;;;;;;5056536;28;20017;-66
2024/02/05 07:13:38;;;;;;;1.13;0.68;;;18.80;62.20;;;;;;5056644;28;20021;-65
2024/02/05 07:16:14;;;;;;;2.00;0.75;;;17.90;62.20;;;;;;5058336;28;20021;-66
2024/02/05 07:18:41;;;;;;;2.00;0.98;;;17.30;62.30;;;;;;5054245;28;20382;-64
2024/02/05 07:21:07;;;;;;;2.15;0.68;;;16.80;63.70;;;;;;5054910;28;20055;-64
2024/02/05 07:23:35;;;;;;;3.10;0.90;;;16.40;64.20;;;;;;5047401;28;20052;-63
2024/02/05 07:26:00;;;;;;;1.30;0.60;;;16.10;65.40;;;;;;5047958;28;20026;-63
2024/02/05 07:28:26;;;;;;;4.70;1.10;;;15.90;65.90;;;;;;5048634;28;20037;-63
2024/02/05 07:30:54;;;;;;;13.23;1.65;;;15.80;66.70;;;;;;5047998;28;20508;-63
2024/02/05 07:33:20;;;;;;;6.35;1.00;;;16.00;66.90;;;;;;5047992;28;20040;-63
2024/02/05 07:35:45;;;;;;;13.18;1.55;;;16.00;67.10;;;;;;5047383;28;20041;-63
2024/02/05 07:38:11;;;;;;;11.15;1.08;;;16.30;70.90;;;;;;5038140;28;20021;-63
2024/02/05 07:40:37;;;;;;;5.68;1.10;;;16.60;72.30;;;;;;5052827;28;20064;-63
2024/02/05 07:43:02;;;;;;;8.82;1.60;;;16.90;72.50;;;;;;5051209;28;20424;-62
2024/02/05 07:45:30;;;;;;;2.83;0.80;;;17.10;72.80;;;;;;5053651;28;20473;-63
2024/02/05 07:47:56;;;;;;;10.10;1.05;;;17.40;72.80;;;;;;5054418;28;20025;-63
2024/02/05 07:50:21;;;;;;;3.58;0.75;;;17.50;72.50;;;;;;5052676;28;20047;-63
2024/02/05 07:52:47;;;;;;;3.40;0.93;;;17.70;72.30;;;;;;5053477;28;20029;-63
2024/02/05 07:55:12;;;;;;;3.03;0.85;;;17.90;72.20;;;;;;5052392;28;20032;-63
2024/02/05 07:57:38;;;;;;;5.60;0.90;;;18.00;72.10;;;;;;5053453;28;20511;-63
2024/02/05 08:00:04;;;;;;;5.32;0.93;;;18.20;71.90;;;;;;5052935;28;20139;-63
2024/02/05 08:02:30;;;;;;;3.03;1.00;;;18.30;71.70;;;;;;5053415;28;20098;-63
2024/02/05 08:04:55;;;;;;;2.40;0.77;;;18.40;71.60;;;;;;5053149;28;20061;-63
2024/02/05 08:07:21;;;;;;;2.75;0.50;;;18.50;71.50;;;;;;5053213;28;20028;-63
2024/02/05 08:09:47;;;;;;;3.65;0.85;;;18.50;71.40;;;;;;5051287;28;20118;-63
2024/02/05 08:12:13;;;;;;;1.38;0.32;;;18.60;71.30;;;;;;5052996;28;20029;-63
2024/02/05 08:14:38;;;;;;;2.40;0.80;;;18.70;71.30;;;;;;5053006;28;20484;-63
2024/02/05 08:17:04;;;;;;;3.63;1.13;;;18.70;71.20;;;;;;5053297;28;20479;-63
2024/02/05 08:19:30;;;;;;;2.92;0.73;;;18.70;71.10;;;;;;5052739;28;20040;-62
2024/02/05 08:21:56;;;;;;;2.95;0.80;;;18.80;71.10;;;;;;5052526;28;20455;-62
2024/02/05 08:24:22;;;;;;;3.33;0.77;;;18.80;71.10;;;;;;5052536;28;20123;-63
2024/02/05 08:26:47;;;;;;;2.83;0.50;;;18.80;71.10;;;;;;5052830;28;20028;-63
2024/02/05 08:29:16;;;;;;;1.65;0.77;;;18.80;71.10;;;;;;5052640;28;20115;-63
2024/02/05 08:31:42;;;;;;;4.97;0.80;;;18.90;71.10;;;;;;5052080;28;20090;-63
2024/02/05 08:34:08;;;;;;;1.45;0.57;;;18.90;71.00;;;;;;5052403;28;20079;-63
2024/02/05 08:36:33;;;;;;;1.60;0.52;;;18.90;71.00;;;;;;5052491;28;20033;-63
2024/02/05 08:38:59;;;;;;;2.55;0.70;;;18.90;71.10;;;;;;5052092;28;20029;-63
2024/02/05 08:41:24;;;;;;;2.67;0.70;;;18.90;71.00;;;;;;5051700;28;20452;-63
2024/02/05 08:43:50;;;;;;;1.35;0.77;;;19.00;71.10;;;;;;5052389;28;20029;-63
2024/02/05 08:46:16;;;;;;;3.83;0.70;;;19.00;71.10;;;;;;5052416;28;20031;-63
2024/02/05 08:48:42;;;;;;;1.98;0.57;;;19.00;71.10;;;;;;5052494;28;20022;-63
2024/02/05 08:51:08;;;;;;;3.08;0.70;;;19.00;71.00;;;;;;5050089;28;20028;-63
2024/02/05 08:53:34;;;;;;;1.33;0.40;;;19.00;71.10;;;;;;5052195;28;20385;-63
2024/02/05 08:55:59;;;;;;;2.58;0.68;;;19.00;71.10;;;;;;5051806;28;20028;-63
2024/02/05 08:58:25;;;;;;;3.75;0.50;;;19.00;71.10;;;;;;5052124;28;20028;-63
2024/02/05 09:00:51;;;;;;;2.92;0.93;;;19.00;71.10;;;;;;5051334;28;20431;-63
2024/02/05 09:03:17;;;;;;;4.47;0.70;;;19.00;71.00;;;;;;5052178;28;20397;-63
2024/02/05 09:05:43;;;;;;;0.93;0.35;;;19.00;71.10;;;;;;5052523;28;20381;-63
2024/02/05 09:08:09;;;;;;;1.13;0.60;;;19.00;71.10;;;;;;5052564;28;20029;-63
2024/02/05 09:10:36;;;;;;;1.65;0.70;;;19.00;71.10;;;;;;5052407;28;20104;-63
2024/02/05 09:13:02;;;;;;;3.33;0.55;;;19.00;71.10;;;;;;5052442;28;20516;-63
2024/02/05 09:15:30;;;;;;;0.93;0.50;;;19.10;71.10;;;;;;5052601;28;20052;-63
2024/02/05 09:17:56;;;;;;;1.45;0.47;;;19.00;71.00;;;;;;5052710;28;20056;-63
2024/02/05 09:20:22;;;;;;;2.65;0.60;;;19.10;71.00;;;;;;5052001;28;20017;-63
2024/02/05 09:22:48;;;;;;;3.95;1.00;;;19.00;71.00;;;;;;5052457;28;20040;-63
2024/02/05 09:25:14;;;;;;;2.67;0.52;;;19.00;71.00;;;;;;5052525;28;20024;-63
2024/02/05 09:27:39;;;;;;;2.95;1.02;;;19.00;71.00;;;;;;5052622;28;20028;-63
2024/02/05 09:30:06;;;;;;;1.48;0.63;;;19.00;71.00;;;;;;5052128;28;20488;-63
2024/02/05 09:32:33;;;;;;;2.40;0.65;;;19.00;71.00;;;;;;5052181;28;20100;-63
2024/02/05 09:34:59;;;;;;;1.95;0.40;;;19.10;71.00;;;;;;5052356;28;20029;-63
2024/02/05 09:37:24;;;;;;;1.10;0.47;;;19.10;71.00;;;;;;5052076;28;20112;-63
2024/02/05 09:39:50;;;;;;;2.58;0.52;;;19.10;71.00;;;;;;5052327;28;20028;-63
2024/02/05 09:42:16;;;;;;;1.50;0.52;;;19.10;71.10;;;;;;5052190;28;20045;-63
2024/02/05 09:44:45;;;;;;;0.95;0.50;;;19.00;71.10;;;;;;5052199;28;20021;-63
2024/02/05 09:47:17;;;;;;;1.85;0.55;;;19.00;71.20;;;;;;5052189;28;20029;-63
2024/02/05 09:49:48;;;;;;;2.17;0.68;;;19.00;71.20;;;;;;5051716;28;20516;-63
2024/02/05 09:52:15;;;;;;;2.03;0.77;;;19.00;71.30;;;;;;5051621;28;20033;-63
2024/02/05 09:54:43;;;;;;;1.15;0.60;;;19.00;71.40;;;;;;5052198;28;20104;-63
2024/02/05 09:57:11;;;;;;;2.78;0.80;;;19.00;71.40;;;;;;5052102;28;20446;-63
2024/02/05 09:59:40;;;;;;;0.60;0.30;;;19.00;71.40;;;;;;5051825;28;20028;-63
2024/02/05 10:02:07;;;;;;;0.98;0.50;;;19.00;71.50;;;;;;5051011;28;20025;-63
2024/02/05 10:04:43;;;;;;;1.50;0.57;;;19.00;71.50;;;;;;5051578;28;20025;-63
2024/02/05 10:07:16;;;;;;;1.13;0.35;;;19.00;71.50;;;;;;5051908;28;20020;-63
2024/02/05 10:09:43;;;;;;;1.23;0.30;;;19.00;71.50;;;;;;5051523;28;20029;-63
2024/02/05 10:12:11;;;;;;;1.73;0.73;;;19.00;71.50;;;;;;5051157;28;20103;-63
2024/02/05 10:14:40;;;;;;;1.60;0.60;;;19.00;71.50;;;;;;5051394;28;20487;-63
2024/02/05 10:17:05;;;;;;;1.67;0.63;;;19.00;71.50;;;;;;5085649;22;20047;-66
2024/02/05 10:19:32;;;;;;;0.88;0.55;;;19.00;71.50;;;;;;5070135;28;20020;-66
2024/02/05 10:21:58;;;;;;;0.43;0.30;;;19.00;71.60;;;;;;5071254;28;20036;-66
2024/02/05 10:24:24;;;;;;;1.42;0.32;;;19.00;71.60;;;;;;5070170;28;20025;-66
2024/02/05 10:26:50;;;;;;;1.15;0.75;;;19.00;71.60;;;;;;5071602;28;20082;-66
2024/02/05 10:29:16;;;;;;;1.70;0.65;;;19.00;71.60;;;;;;5071462;28;20031;-66
2024/02/05 10:31:47;;;;;;;1.50;0.57;;;19.00;71.60;;;;;;5071014;28;20458;-66
2024/02/05 10:34:17;;;;;;;0.95;0.35;;;19.00;71.60;;;;;;5071329;28;20146;-66
2024/02/05 10:36:42;;;;;;;1.27;0.38;;;19.00;71.60;;;;;;5071570;28;20032;-66
2024/02/05 10:39:08;;;;;;;0.80;0.50;;;19.00;71.70;;;;;;5071186;28;20369;-65
2024/02/05 10:41:37;;;;;;;1.52;0.35;;;19.00;71.60;;;;;;5070786;28;20082;-65
2024/02/05 10:44:03;;;;;;;0.98;0.30;;;19.00;71.60;;;;;;5071357;28;20012;-66
2024/02/05 10:46:32;;;;;;;0.98;0.43;;;19.00;71.70;;;;;;5071138;28;20546;-66
2024/02/05 10:49:01;;;;;;;2.22;0.80;;;19.00;71.70;;;;;;5071229;28;20020;-65
2024/02/05 10:51:27;;;;;;;0.32;0.22;;;19.00;71.70;;;;;;5070572;28;20027;-66
2024/02/05 10:53:53;;;;;;;0.77;0.22;;;19.00;71.70;;;;;;5071224;28;20441;-66
2024/02/05 10:56:19;;;;;;;2.75;0.57;;;19.00;71.70;;;;;;5071241;28;20028;-66
2024/02/05 10:58:48;;;;;;;1.33;0.60;;;19.00;71.80;;;;;;5071291;28;20024;-66
2024/02/05 11:01:19;;;;;;;0.43;0.28;;;19.00;71.80;;;;;;5070508;28;20028;-65
2024/02/05 11:03:49;;;;;;;0.73;0.30;;;19.00;71.80;;;;;;5074811;28;20028;-65
2024/02/05 11:06:17;;;;;;;1.65;0.43;;;19.00;71.80;;;;;;5055904;28;20033;-66
2024/02/05 11:08:43;;;;;;;0.77;0.30;;;19.00;71.80;;;;;;5057353;28;20127;-66
2024/02/05 11:11:12;;;;;;;1.05;0.50;;;19.00;71.80;;;;;;5055417;28;20029;-67
2024/02/05 11:14:02;;;;;;;1.13;0.38;;;19.00;71.80;;;;;;5054458;28;20079;-66
2024/02/05 11:16:30;;;;;;;1.60;0.50;;;19.00;71.80;;;;;;5056067;28;20075;-66
2024/02/05 11:18:58;;;;;;;1.30;0.17;;;19.00;71.80;;;;;;5053393;28;20484;-67
2024/02/05 11:21:29;;;;;;;0.32;0.10;;;19.00;71.90;;;;;;5052991;28;20056;-66
2024/02/05 11:23:57;;;;;;;1.02;0.30;;;19.00;71.90;;;;;;5055307;28;20032;-66
2024/02/05 11:26:24;;;;;;;0.35;0.25;;;19.00;71.90;;;;;;5055833;28;20546;-67
2024/02/05 11:28:52;;;;;;;0.55;0.40;;;19.00;71.90;;;;;;5054951;28;20475;-66
2024/02/05 11:31:22;;;;;;;1.30;0.40;;;19.00;71.90;;;;;;5053920;28;20017;-66
2024/02/05 11:33:56;;;;;;;0.93;0.30;;;19.00;71.90;;;;;;5055097;28;20392;-66
2024/02/05 11:36:22;;;;;;;1.77;0.50;;;19.00;71.90;;;;;;5054733;28;20025;-66
2024/02/05 11:38:48;;;;;;;1.13;0.30;;;19.00;71.90;;;;;;5054662;28;20548;-66
2024/02/05 11:41:19;;;;;;;0.52;0.20;;;19.00;71.90;;;;;;5053875;28;20107;-66
2024/02/05 11:43:45;;;;;;;1.80;0.40;;;19.00;71.90;;;;;;5054667;28;20024;-66
2024/02/05 11:46:11;;;;;;;0.30;0.30;;;19.00;71.90;;;;;;5054371;28;20028;-66
2024/02/05 11:48:38;;;;;;;1.10;0.35;;;19.00;71.90;;;;;;5054699;28;20051;-66
2024/02/05 11:51:04;;;;;;;0.20;0.20;;;19.00;71.90;;;;;;5053910;28;20045;-66
2024/02/05 11:53:29;;;;;;;0.90;0.40;;;19.00;71.80;;;;;;5054566;28;20029;-65
2024/02/05 11:55:55;;;;;;;1.13;0.40;;;19.00;71.90;;;;;;5054178;28;20025;-65
2024/02/05 11:58:21;;;;;;;0.75;0.20;;;19.00;71.80;;;;;;5054243;28;20400;-64
2024/02/05 12:00:46;;;;;;;1.02;0.55;;;19.00;71.80;;;;;;5053374;28;20708;-65
2024/02/05 12:03:14;;;;;;;0.70;0.22;;;19.00;71.80;;;;;;5054326;28;20472;-65
2024/02/05 12:05:41;;;;;;;0.80;0.50;;;19.00;71.80;;;;;;5054083;28;20028;-65
2024/02/05 12:08:08;;;;;;;0.20;0.20;;;19.00;71.80;;;;;;5054257;28;20021;-65
2024/02/05 12:10:34;;;;;;;0.88;0.25;;;19.00;71.80;;;;;;5053417;28;20040;-65
2024/02/05 12:13:02;;;;;;;0.55;0.35;;;19.00;71.80;;;;;;5053977;28;20032;-65
2024/02/05 12:15:33;;;;;;;0.47;0.38;;;19.00;71.80;;;;;;5053689;28;20036;-65
2024/02/05 12:18:03;;;;;;;0.47;0.22;;;19.00;71.80;;;;;;5053947;28;20029;-65
2024/02/05 12:20:29;;;;;;;1.80;0.50;;;19.00;71.90;;;;;;5053238;28;20025;-65
2024/02/05 12:22:55;;;;;;;1.15;0.40;;;19.00;71.80;;;;;;5053801;28;20021;-65
2024/02/05 12:25:21;;;;;;;1.33;0.35;;;19.00;71.80;;;;;;5053398;28;20029;-65
2024/02/05 12:27:47;;;;;;;0.43;0.20;;;19.00;71.90;;;;;;5053722;28;20017;-65
2024/02/05 12:30:13;;;;;;;0.75;0.40;;;19.00;71.80;;;;;;5052847;28;20476;-65
2024/02/05 12:32:40;;;;;;;0.77;0.28;;;19.00;71.80;;;;;;5053579;28;20025;-65
2024/02/05 12:35:06;;;;;;;0.40;0.30;;;19.00;71.90;;;;;;5053806;28;20029;-65